sensor_id;sensor_type;location;lat;lon;timestamp;P1;P2;P0
12542;PMS3003;6337;49.556;25.594;2023-11-19T00:00:34;27.50;15.93;
12542;PMS3003;6337;49.556;25.594;2023-11-19T00:03:01;29.10;12.40;
12542;PMS3003;6337;49.556;25.594;2023-11-19T00:05:28;22.27;13.97;
12542;PMS3003;6337;49.556;25.594;2023-11-19T00:07:55;24.90;15.10;
12542;PMS3003;6337;49.556;25.594;2023-11-19T00:10:22;22.30;12.93;
12542;PMS3003;6337;49.556;25.594;2023-11-19T00:12:51;18.47;14.00;
12542;PMS3003;6337;49.556;25.594;2023-11-19T00:15:19;17.83;12.33;
12542;PMS3003;6337;49.556;25.594;2023-11-19T00:17:46;25.60;13.33;
12542;PMS3003;6337;49.556;25.594;2023-11-19T00:20:15;20.93;14.23;
12542;PMS3003;6337;49.556;25.594;2023-11-19T00:22:43;26.03;12.30;
12542;PMS3003;6337;49.556;25.594;2023-11-19T00:25:13;21.60;13.47;
12542;PMS3003;6337;49.556;25.594;2023-11-19T00:27:40;20.63;12.00;
12542;PMS3003;6337;49.556;25.594;2023-11-19T00:30:12;26.47;14.07;
12542;PMS3003;6337;49.556;25.594;2023-11-19T00:32:40;20.90;12.97;
12542;PMS3003;6337;49.556;25.594;2023-11-19T00:35:07;19.13;12.37;
12542;PMS3003;6337;49.556;25.594;2023-11-19T00:37:35;22.13;12.77;
12542;PMS3003;6337;49.556;25.594;2023-11-19T00:40:03;23.63;15.07;
12542;PMS3003;6337;49.556;25.594;2023-11-19T00:42:31;20.60;13.10;
12542;PMS3003;6337;49.556;25.594;2023-11-19T00:44:58;24.03;12.60;
12542;PMS3003;6337;49.556;25.594;2023-11-19T00:47:28;22.30;11.17;
12542;PMS3003;6337;49.556;25.594;2023-11-19T00:49:56;22.77;13.07;
12542;PMS3003;6337;49.556;25.594;2023-11-19T00:52:23;26.93;13.37;
12542;PMS3003;6337;49.556;25.594;2023-11-19T00:54:51;23.47;12.93;
12542;PMS3003;6337;49.556;25.594;2023-11-19T00:57:18;18.17;12.17;
12542;PMS3003;6337;49.556;25.594;2023-11-19T00:59:48;16.52;9.68;
12542;PMS3003;6337;49.556;25.594;2023-11-19T01:02:15;28.67;11.50;
12542;PMS3003;6337;49.556;25.594;2023-11-19T01:04:44;18.20;10.80;
12542;PMS3003;6337;49.556;25.594;2023-11-19T01:07:11;25.47;12.57;
12542;PMS3003;6337;49.556;25.594;2023-11-19T01:09:38;15.67;11.07;
12542;PMS3003;6337;49.556;25.594;2023-11-19T01:12:08;17.92;10.70;
12542;PMS3003;6337;49.556;25.594;2023-11-19T01:14:35;18.87;11.83;
12542;PMS3003;6337;49.556;25.594;2023-11-19T01:17:05;16.35;11.80;
12542;PMS3003;6337;49.556;25.594;2023-11-19T01:19:32;18.10;10.27;
12542;PMS3003;6337;49.556;25.594;2023-11-19T01:22:01;16.55;10.13;
12542;PMS3003;6337;49.556;25.594;2023-11-19T01:24:28;19.63;12.25;
12542;PMS3003;6337;49.556;25.594;2023-11-19T01:26:56;23.10;12.48;
12542;PMS3003;6337;49.556;25.594;2023-11-19T01:29:25;26.57;11.90;
12542;PMS3003;6337;49.556;25.594;2023-11-19T01:31:52;15.85;11.20;
12542;PMS3003;6337;49.556;25.594;2023-11-19T01:34:19;19.90;12.23;
12542;PMS3003;6337;49.556;25.594;2023-11-19T01:36:46;13.82;10.32;
12542;PMS3003;6337;49.556;25.594;2023-11-19T01:39:15;22.48;10.90;
12542;PMS3003;6337;49.556;25.594;2023-11-19T01:41:44;17.02;9.95;
12542;PMS3003;6337;49.556;25.594;2023-11-19T01:44:12;14.20;9.85;
12542;PMS3003;6337;49.556;25.594;2023-11-19T01:46:40;19.77;11.50;
12542;PMS3003;6337;49.556;25.594;2023-11-19T01:49:07;16.77;11.20;
12542;PMS3003;6337;49.556;25.594;2023-11-19T01:51:36;21.98;11.88;
12542;PMS3003;6337;49.556;25.594;2023-11-19T01:54:05;22.73;8.30;
12542;PMS3003;6337;49.556;25.594;2023-11-19T01:56:35;14.32;9.65;
12542;PMS3003;6337;49.556;25.594;2023-11-19T01:59:05;11.43;7.78;
12542;PMS3003;6337;49.556;25.594;2023-11-19T02:01:34;14.60;9.73;
12542;PMS3003;6337;49.556;25.594;2023-11-19T02:04:04;10.77;7.63;
12542;PMS3003;6337;49.556;25.594;2023-11-19T02:06:32;12.77;8.73;
12542;PMS3003;6337;49.556;25.594;2023-11-19T02:09:00;10.98;8.25;
12542;PMS3003;6337;49.556;25.594;2023-11-19T02:11:32;11.90;8.20;
12542;PMS3003;6337;49.556;25.594;2023-11-19T02:14:01;13.65;8.98;
12542;PMS3003;6337;49.556;25.594;2023-11-19T02:16:29;12.00;7.97;
12542;PMS3003;6337;49.556;25.594;2023-11-19T02:18:56;11.05;7.40;
12542;PMS3003;6337;49.556;25.594;2023-11-19T02:21:24;13.38;8.38;
12542;PMS3003;6337;49.556;25.594;2023-11-19T02:23:51;11.90;8.05;
12542;PMS3003;6337;49.556;25.594;2023-11-19T02:26:24;11.15;8.60;
12542;PMS3003;6337;49.556;25.594;2023-11-19T02:28:55;11.38;9.00;
12542;PMS3003;6337;49.556;25.594;2023-11-19T02:31:22;14.20;9.40;
12542;PMS3003;6337;49.556;25.594;2023-11-19T02:33:50;14.75;9.40;
12542;PMS3003;6337;49.556;25.594;2023-11-19T02:36:19;10.25;7.57;
12542;PMS3003;6337;49.556;25.594;2023-11-19T02:38:46;15.60;9.10;
12542;PMS3003;6337;49.556;25.594;2023-11-19T02:41:14;13.80;8.57;
12542;PMS3003;6337;49.556;25.594;2023-11-19T02:43:41;25.50;9.38;
12542;PMS3003;6337;49.556;25.594;2023-11-19T02:46:10;14.88;8.00;
12542;PMS3003;6337;49.556;25.594;2023-11-19T02:48:37;11.00;8.50;
12542;PMS3003;6337;49.556;25.594;2023-11-19T02:51:05;13.82;8.15;
12542;PMS3003;6337;49.556;25.594;2023-11-19T02:53:34;18.98;9.60;
12542;PMS3003;6337;49.556;25.594;2023-11-19T02:56:02;11.63;8.68;
12542;PMS3003;6337;49.556;25.594;2023-11-19T02:58:42;14.90;7.90;
12542;PMS3003;6337;49.556;25.594;2023-11-19T03:01:12;16.17;10.10;
12542;PMS3003;6337;49.556;25.594;2023-11-19T03:03:48;12.68;9.60;
12542;PMS3003;6337;49.556;25.594;2023-11-19T03:06:19;10.30;7.55;
12542;PMS3003;6337;49.556;25.594;2023-11-19T03:08:48;12.00;7.35;
12542;PMS3003;6337;49.556;25.594;2023-11-19T03:11:16;10.35;8.20;
12542;PMS3003;6337;49.556;25.594;2023-11-19T03:13:43;15.90;8.85;
12542;PMS3003;6337;49.556;25.594;2023-11-19T03:16:13;12.23;8.98;
12542;PMS3003;6337;49.556;25.594;2023-11-19T03:18:41;11.52;8.13;
12542;PMS3003;6337;49.556;25.594;2023-11-19T03:21:09;13.23;8.60;
12542;PMS3003;6337;49.556;25.594;2023-11-19T03:23:36;13.70;8.83;
12542;PMS3003;6337;49.556;25.594;2023-11-19T03:26:05;11.37;9.63;
12542;PMS3003;6337;49.556;25.594;2023-11-19T03:28:33;12.55;9.57;
12542;PMS3003;6337;49.556;25.594;2023-11-19T03:31:01;15.23;8.43;
12542;PMS3003;6337;49.556;25.594;2023-11-19T03:33:30;12.68;8.70;
12542;PMS3003;6337;49.556;25.594;2023-11-19T03:35:58;20.05;9.20;
12542;PMS3003;6337;49.556;25.594;2023-11-19T03:38:25;15.15;9.68;
12542;PMS3003;6337;49.556;25.594;2023-11-19T03:40:52;11.73;8.63;
12542;PMS3003;6337;49.556;25.594;2023-11-19T03:43:20;10.33;7.97;
12542;PMS3003;6337;49.556;25.594;2023-11-19T03:45:49;12.15;8.95;
12542;PMS3003;6337;49.556;25.594;2023-11-19T03:48:16;15.77;8.48;
12542;PMS3003;6337;49.556;25.594;2023-11-19T03:50:45;17.75;10.05;
12542;PMS3003;6337;49.556;25.594;2023-11-19T03:53:13;15.32;8.88;
12542;PMS3003;6337;49.556;25.594;2023-11-19T03:55:41;16.55;9.10;
12542;PMS3003;6337;49.556;25.594;2023-11-19T03:58:08;12.35;9.65;
12542;PMS3003;6337;49.556;25.594;2023-11-19T04:00:35;13.32;8.80;
12542;PMS3003;6337;49.556;25.594;2023-11-19T04:03:03;13.30;10.32;
12542;PMS3003;6337;49.556;25.594;2023-11-19T04:05:30;22.73;11.05;
12542;PMS3003;6337;49.556;25.594;2023-11-19T04:07:59;13.65;9.23;
12542;PMS3003;6337;49.556;25.594;2023-11-19T04:10:26;12.35;8.68;
12542;PMS3003;6337;49.556;25.594;2023-11-19T04:12:53;10.40;8.70;
12542;PMS3003;6337;49.556;25.594;2023-11-19T04:15:21;11.57;8.07;
12542;PMS3003;6337;49.556;25.594;2023-11-19T04:17:49;16.17;9.40;
12542;PMS3003;6337;49.556;25.594;2023-11-19T04:20:16;13.52;9.02;
12542;PMS3003;6337;49.556;25.594;2023-11-19T04:22:43;17.15;9.43;
12542;PMS3003;6337;49.556;25.594;2023-11-19T04:25:12;17.25;9.55;
12542;PMS3003;6337;49.556;25.594;2023-11-19T04:27:41;11.17;9.20;
12542;PMS3003;6337;49.556;25.594;2023-11-19T04:30:09;15.80;9.68;
12542;PMS3003;6337;49.556;25.594;2023-11-19T04:32:37;14.25;10.25;
12542;PMS3003;6337;49.556;25.594;2023-11-19T04:35:04;13.87;8.80;
12542;PMS3003;6337;49.556;25.594;2023-11-19T04:37:33;17.98;9.75;
12542;PMS3003;6337;49.556;25.594;2023-11-19T04:40:00;10.80;8.83;
12542;PMS3003;6337;49.556;25.594;2023-11-19T04:42:29;11.63;8.05;
12542;PMS3003;6337;49.556;25.594;2023-11-19T04:44:57;10.43;8.60;
12542;PMS3003;6337;49.556;25.594;2023-11-19T04:47:24;10.68;8.48;
12542;PMS3003;6337;49.556;25.594;2023-11-19T04:49:51;14.17;9.30;
12542;PMS3003;6337;49.556;25.594;2023-11-19T04:52:20;13.20;9.13;
12542;PMS3003;6337;49.556;25.594;2023-11-19T04:54:47;9.27;8.33;
12542;PMS3003;6337;49.556;25.594;2023-11-19T04:57:14;15.05;9.55;
12542;PMS3003;6337;49.556;25.594;2023-11-19T04:59:44;14.33;8.90;
12542;PMS3003;6337;49.556;25.594;2023-11-19T05:02:12;18.13;11.00;
12542;PMS3003;6337;49.556;25.594;2023-11-19T05:04:42;12.05;8.88;
12542;PMS3003;6337;49.556;25.594;2023-11-19T05:07:09;13.82;10.00;
12542;PMS3003;6337;49.556;25.594;2023-11-19T05:09:36;12.93;9.30;
12542;PMS3003;6337;49.556;25.594;2023-11-19T05:12:04;18.55;10.50;
12542;PMS3003;6337;49.556;25.594;2023-11-19T05:14:35;14.23;9.70;
12542;PMS3003;6337;49.556;25.594;2023-11-19T05:17:04;14.47;10.23;
12542;PMS3003;6337;49.556;25.594;2023-11-19T05:19:33;13.50;8.90;
12542;PMS3003;6337;49.556;25.594;2023-11-19T05:22:01;11.77;8.77;
12542;PMS3003;6337;49.556;25.594;2023-11-19T05:24:28;12.02;9.95;
12542;PMS3003;6337;49.556;25.594;2023-11-19T05:26:55;14.95;9.50;
12542;PMS3003;6337;49.556;25.594;2023-11-19T05:29:23;15.40;8.43;
12542;PMS3003;6337;49.556;25.594;2023-11-19T05:31:50;14.47;9.13;
12542;PMS3003;6337;49.556;25.594;2023-11-19T05:34:22;13.73;9.50;
12542;PMS3003;6337;49.556;25.594;2023-11-19T05:36:50;13.07;9.40;
12542;PMS3003;6337;49.556;25.594;2023-11-19T05:39:17;17.77;10.00;
12542;PMS3003;6337;49.556;25.594;2023-11-19T05:41:45;12.33;8.40;
12542;PMS3003;6337;49.556;25.594;2023-11-19T05:44:12;14.95;9.20;
12542;PMS3003;6337;49.556;25.594;2023-11-19T05:46:39;10.33;7.73;
12542;PMS3003;6337;49.556;25.594;2023-11-19T05:49:07;11.37;8.30;
12542;PMS3003;6337;49.556;25.594;2023-11-19T05:51:37;10.07;6.87;
12542;PMS3003;6337;49.556;25.594;2023-11-19T05:54:05;7.63;6.00;
12542;PMS3003;6337;49.556;25.594;2023-11-19T05:56:33;14.85;8.23;
12542;PMS3003;6337;49.556;25.594;2023-11-19T05:59:00;12.20;8.13;
12542;PMS3003;6337;49.556;25.594;2023-11-19T06:01:39;13.43;9.50;
12542;PMS3003;6337;49.556;25.594;2023-11-19T06:04:07;10.85;8.45;
12542;PMS3003;6337;49.556;25.594;2023-11-19T06:06:35;12.40;8.13;
12542;PMS3003;6337;49.556;25.594;2023-11-19T06:09:03;11.07;7.78;
12542;PMS3003;6337;49.556;25.594;2023-11-19T06:11:31;12.95;9.00;
12542;PMS3003;6337;49.556;25.594;2023-11-19T06:14:01;10.95;7.20;
12542;PMS3003;6337;49.556;25.594;2023-11-19T06:16:30;9.38;7.82;
12542;PMS3003;6337;49.556;25.594;2023-11-19T06:18:58;9.15;6.90;
12542;PMS3003;6337;49.556;25.594;2023-11-19T06:21:25;11.05;5.82;
12542;PMS3003;6337;49.556;25.594;2023-11-19T06:23:53;10.53;7.37;
12542;PMS3003;6337;49.556;25.594;2023-11-19T06:26:22;10.90;8.50;
12542;PMS3003;6337;49.556;25.594;2023-11-19T06:28:50;8.55;5.90;
12542;PMS3003;6337;49.556;25.594;2023-11-19T06:31:18;7.82;5.95;
12542;PMS3003;6337;49.556;25.594;2023-11-19T06:33:45;9.10;6.00;
12542;PMS3003;6337;49.556;25.594;2023-11-19T06:36:14;9.40;6.45;
12542;PMS3003;6337;49.556;25.594;2023-11-19T06:38:42;6.95;5.80;
12542;PMS3003;6337;49.556;25.594;2023-11-19T06:41:10;7.67;6.50;
12542;PMS3003;6337;49.556;25.594;2023-11-19T06:43:38;12.13;7.50;
12542;PMS3003;6337;49.556;25.594;2023-11-19T06:46:06;7.72;6.18;
12542;PMS3003;6337;49.556;25.594;2023-11-19T06:48:41;11.88;7.72;
12542;PMS3003;6337;49.556;25.594;2023-11-19T06:51:10;11.73;7.50;
12542;PMS3003;6337;49.556;25.594;2023-11-19T06:53:38;7.82;6.50;
12542;PMS3003;6337;49.556;25.594;2023-11-19T06:56:17;9.60;6.43;
12542;PMS3003;6337;49.556;25.594;2023-11-19T06:58:46;6.68;5.15;
12542;PMS3003;6337;49.556;25.594;2023-11-19T07:01:14;7.95;6.28;
12542;PMS3003;6337;49.556;25.594;2023-11-19T07:03:43;8.15;5.63;
12542;PMS3003;6337;49.556;25.594;2023-11-19T07:06:12;6.10;5.15;
12542;PMS3003;6337;49.556;25.594;2023-11-19T07:08:40;10.05;6.60;
12542;PMS3003;6337;49.556;25.594;2023-11-19T07:11:10;8.80;6.07;
12542;PMS3003;6337;49.556;25.594;2023-11-19T07:13:39;9.88;8.88;
12542;PMS3003;6337;49.556;25.594;2023-11-19T07:16:13;8.50;6.75;
12542;PMS3003;6337;49.556;25.594;2023-11-19T07:18:40;7.72;6.18;
12542;PMS3003;6337;49.556;25.594;2023-11-19T07:21:09;8.65;5.82;
12542;PMS3003;6337;49.556;25.594;2023-11-19T07:23:36;12.43;6.85;
12542;PMS3003;6337;49.556;25.594;2023-11-19T07:26:04;6.88;5.15;
12542;PMS3003;6337;49.556;25.594;2023-11-19T07:28:34;8.23;6.53;
12542;PMS3003;6337;49.556;25.594;2023-11-19T07:31:03;6.95;5.65;
12542;PMS3003;6337;49.556;25.594;2023-11-19T07:33:34;8.07;6.47;
12542;PMS3003;6337;49.556;25.594;2023-11-19T07:36:01;8.47;6.10;
12542;PMS3003;6337;49.556;25.594;2023-11-19T07:38:31;7.10;6.43;
12542;PMS3003;6337;49.556;25.594;2023-11-19T07:40:58;8.23;6.25;
12542;PMS3003;6337;49.556;25.594;2023-11-19T07:43:25;9.80;7.40;
12542;PMS3003;6337;49.556;25.594;2023-11-19T07:45:52;14.55;8.23;
12542;PMS3003;6337;49.556;25.594;2023-11-19T07:48:20;8.10;7.32;
12542;PMS3003;6337;49.556;25.594;2023-11-19T07:50:50;6.63;5.80;
12542;PMS3003;6337;49.556;25.594;2023-11-19T07:53:18;8.10;6.97;
12542;PMS3003;6337;49.556;25.594;2023-11-19T07:55:46;5.17;4.73;
12542;PMS3003;6337;49.556;25.594;2023-11-19T07:58:13;6.95;5.60;
12542;PMS3003;6337;49.556;25.594;2023-11-19T08:00:41;8.73;6.50;
12542;PMS3003;6337;49.556;25.594;2023-11-19T08:03:08;10.60;6.00;
12542;PMS3003;6337;49.556;25.594;2023-11-19T08:05:35;11.65;6.85;
12542;PMS3003;6337;49.556;25.594;2023-11-19T08:08:05;10.83;6.00;
12542;PMS3003;6337;49.556;25.594;2023-11-19T08:10:32;8.93;6.97;
12542;PMS3003;6337;49.556;25.594;2023-11-19T08:12:59;10.93;6.97;
12542;PMS3003;6337;49.556;25.594;2023-11-19T08:15:27;9.68;6.43;
12542;PMS3003;6337;49.556;25.594;2023-11-19T08:17:54;10.93;7.57;
12542;PMS3003;6337;49.556;25.594;2023-11-19T08:20:21;7.30;5.47;
12542;PMS3003;6337;49.556;25.594;2023-11-19T08:22:54;6.33;5.57;
12542;PMS3003;6337;49.556;25.594;2023-11-19T08:25:22;8.30;5.88;
12542;PMS3003;6337;49.556;25.594;2023-11-19T08:27:49;8.63;5.83;
12542;PMS3003;6337;49.556;25.594;2023-11-19T08:30:18;5.90;5.30;
12542;PMS3003;6337;49.556;25.594;2023-11-19T08:32:46;9.18;7.00;
12542;PMS3003;6337;49.556;25.594;2023-11-19T08:35:14;9.17;6.23;
12542;PMS3003;6337;49.556;25.594;2023-11-19T08:37:41;6.87;6.27;
12542;PMS3003;6337;49.556;25.594;2023-11-19T08:40:11;7.80;5.70;
12542;PMS3003;6337;49.556;25.594;2023-11-19T08:42:41;15.50;11.03;
12542;PMS3003;6337;49.556;25.594;2023-11-19T08:45:08;9.13;7.30;
12542;PMS3003;6337;49.556;25.594;2023-11-19T08:47:36;13.48;9.52;
12542;PMS3003;6337;49.556;25.594;2023-11-19T08:50:06;9.98;6.85;
12542;PMS3003;6337;49.556;25.594;2023-11-19T08:52:33;6.57;5.93;
12542;PMS3003;6337;49.556;25.594;2023-11-19T08:55:01;7.68;6.50;
12542;PMS3003;6337;49.556;25.594;2023-11-19T08:57:30;11.03;7.30;
12542;PMS3003;6337;49.556;25.594;2023-11-19T08:59:59;12.03;7.07;
12542;PMS3003;6337;49.556;25.594;2023-11-19T09:02:32;9.53;7.40;
12542;PMS3003;6337;49.556;25.594;2023-11-19T09:05:03;13.53;6.90;
12542;PMS3003;6337;49.556;25.594;2023-11-19T09:07:32;11.90;8.80;
12542;PMS3003;6337;49.556;25.594;2023-11-19T09:09:59;11.43;7.87;
12542;PMS3003;6337;49.556;25.594;2023-11-19T09:12:27;11.97;8.00;
12542;PMS3003;6337;49.556;25.594;2023-11-19T09:14:54;9.87;7.53;
12542;PMS3003;6337;49.556;25.594;2023-11-19T09:17:23;12.90;8.17;
12542;PMS3003;6337;49.556;25.594;2023-11-19T09:19:51;8.40;7.40;
12542;PMS3003;6337;49.556;25.594;2023-11-19T09:22:18;10.90;7.90;
12542;PMS3003;6337;49.556;25.594;2023-11-19T09:24:46;9.83;7.80;
12542;PMS3003;6337;49.556;25.594;2023-11-19T09:27:13;11.60;7.23;
12542;PMS3003;6337;49.556;25.594;2023-11-19T09:29:40;11.10;8.30;
12542;PMS3003;6337;49.556;25.594;2023-11-19T09:32:11;9.30;7.33;
12542;PMS3003;6337;49.556;25.594;2023-11-19T09:34:40;8.97;6.60;
12542;PMS3003;6337;49.556;25.594;2023-11-19T09:37:07;8.73;7.23;
12542;PMS3003;6337;49.556;25.594;2023-11-19T09:39:35;10.43;7.53;
12542;PMS3003;6337;49.556;25.594;2023-11-19T09:42:02;9.57;7.03;
12542;PMS3003;6337;49.556;25.594;2023-11-19T09:44:30;6.93;6.30;
12542;PMS3003;6337;49.556;25.594;2023-11-19T09:47:00;9.37;7.27;
12542;PMS3003;6337;49.556;25.594;2023-11-19T09:49:28;8.47;7.10;
12542;PMS3003;6337;49.556;25.594;2023-11-19T09:51:58;10.57;7.23;
12542;PMS3003;6337;49.556;25.594;2023-11-19T09:54:26;7.87;6.10;
12542;PMS3003;6337;49.556;25.594;2023-11-19T09:56:53;8.30;6.07;
12542;PMS3003;6337;49.556;25.594;2023-11-19T09:59:24;9.63;6.83;
12542;PMS3003;6337;49.556;25.594;2023-11-19T10:01:52;7.93;6.70;
12542;PMS3003;6337;49.556;25.594;2023-11-19T10:04:20;7.87;6.40;
12542;PMS3003;6337;49.556;25.594;2023-11-19T10:06:48;11.23;6.73;
12542;PMS3003;6337;49.556;25.594;2023-11-19T10:09:18;11.87;7.83;
12542;PMS3003;6337;49.556;25.594;2023-11-19T10:11:45;7.17;6.20;
12542;PMS3003;6337;49.556;25.594;2023-11-19T10:14:12;5.87;5.27;
12542;PMS3003;6337;49.556;25.594;2023-11-19T10:16:44;10.00;6.30;
12542;PMS3003;6337;49.556;25.594;2023-11-19T10:19:12;9.45;6.80;
12542;PMS3003;6337;49.556;25.594;2023-11-19T10:21:46;14.83;6.13;
12542;PMS3003;6337;49.556;25.594;2023-11-19T10:24:12;10.13;7.63;
12542;PMS3003;6337;49.556;25.594;2023-11-19T10:26:42;12.50;7.00;
12542;PMS3003;6337;49.556;25.594;2023-11-19T10:29:10;9.63;8.60;
12542;PMS3003;6337;49.556;25.594;2023-11-19T10:31:41;16.70;8.27;
12542;PMS3003;6337;49.556;25.594;2023-11-19T10:34:15;9.13;6.73;
12542;PMS3003;6337;49.556;25.594;2023-11-19T10:36:53;11.10;7.00;
12542;PMS3003;6337;49.556;25.594;2023-11-19T10:39:21;13.30;7.87;
12542;PMS3003;6337;49.556;25.594;2023-11-19T10:41:53;8.20;7.07;
12542;PMS3003;6337;49.556;25.594;2023-11-19T10:44:32;13.93;8.87;
12542;PMS3003;6337;49.556;25.594;2023-11-19T10:47:05;7.27;6.57;
12542;PMS3003;6337;49.556;25.594;2023-11-19T10:49:33;10.40;7.87;
12542;PMS3003;6337;49.556;25.594;2023-11-19T10:52:01;8.17;6.67;
12542;PMS3003;6337;49.556;25.594;2023-11-19T10:54:33;9.97;7.07;
12542;PMS3003;6337;49.556;25.594;2023-11-19T10:59:51;13.03;7.43;
12542;PMS3003;6337;49.556;25.594;2023-11-19T11:02:21;8.77;7.13;
12542;PMS3003;6337;49.556;25.594;2023-11-19T11:04:49;10.20;7.23;
12542;PMS3003;6337;49.556;25.594;2023-11-19T11:07:17;8.73;7.70;
12542;PMS3003;6337;49.556;25.594;2023-11-19T11:09:51;11.20;7.87;
12542;PMS3003;6337;49.556;25.594;2023-11-19T11:12:18;11.90;7.80;
12542;PMS3003;6337;49.556;25.594;2023-11-19T11:14:50;9.47;6.60;
12542;PMS3003;6337;49.556;25.594;2023-11-19T11:17:18;8.40;7.33;
12542;PMS3003;6337;49.556;25.594;2023-11-19T11:19:46;9.53;7.63;
12542;PMS3003;6337;49.556;25.594;2023-11-19T11:22:14;16.30;8.70;
12542;PMS3003;6337;49.556;25.594;2023-11-19T11:24:47;11.73;8.70;
12542;PMS3003;6337;49.556;25.594;2023-11-19T11:27:31;10.00;7.73;
12542;PMS3003;6337;49.556;25.594;2023-11-19T11:30:15;9.70;7.13;
12542;PMS3003;6337;49.556;25.594;2023-11-19T11:32:49;7.73;6.80;
12542;PMS3003;6337;49.556;25.594;2023-11-19T11:35:24;9.53;7.10;
12542;PMS3003;6337;49.556;25.594;2023-11-19T11:38:00;12.30;8.40;
12542;PMS3003;6337;49.556;25.594;2023-11-19T11:40:29;22.00;8.90;
12542;PMS3003;6337;49.556;25.594;2023-11-19T11:42:58;8.48;7.00;
12542;PMS3003;6337;49.556;25.594;2023-11-19T11:45:35;13.50;7.90;
12542;PMS3003;6337;49.556;25.594;2023-11-19T11:48:09;11.63;8.95;
12542;PMS3003;6337;49.556;25.594;2023-11-19T11:50:37;14.93;7.10;
12542;PMS3003;6337;49.556;25.594;2023-11-19T11:53:42;10.38;7.80;
12542;PMS3003;6337;49.556;25.594;2023-11-19T11:56:10;12.25;9.45;
12542;PMS3003;6337;49.556;25.594;2023-11-19T11:58:40;17.25;10.23;
12542;PMS3003;6337;49.556;25.594;2023-11-19T12:01:07;14.80;9.25;
12542;PMS3003;6337;49.556;25.594;2023-11-19T12:03:34;16.92;10.10;
12542;PMS3003;6337;49.556;25.594;2023-11-19T12:06:05;12.20;8.63;
12542;PMS3003;6337;49.556;25.594;2023-11-19T12:08:34;13.93;8.88;
12542;PMS3003;6337;49.556;25.594;2023-11-19T12:11:03;10.10;7.07;
12542;PMS3003;6337;49.556;25.594;2023-11-19T12:13:46;11.90;8.33;
12542;PMS3003;6337;49.556;25.594;2023-11-19T12:16:15;13.20;7.10;
12542;PMS3003;6337;49.556;25.594;2023-11-19T12:18:42;12.07;7.63;
12542;PMS3003;6337;49.556;25.594;2023-11-19T12:21:09;8.63;6.83;
12542;PMS3003;6337;49.556;25.594;2023-11-19T12:23:45;8.80;6.03;
12542;PMS3003;6337;49.556;25.594;2023-11-19T12:26:33;8.93;7.00;
12542;PMS3003;6337;49.556;25.594;2023-11-19T12:29:04;11.60;7.57;
12542;PMS3003;6337;49.556;25.594;2023-11-19T12:31:33;8.67;6.60;
12542;PMS3003;6337;49.556;25.594;2023-11-19T12:34:07;11.80;6.97;
12542;PMS3003;6337;49.556;25.594;2023-11-19T12:36:37;11.43;7.27;
12542;PMS3003;6337;49.556;25.594;2023-11-19T12:39:08;13.53;8.10;
12542;PMS3003;6337;49.556;25.594;2023-11-19T12:41:51;10.03;8.47;
12542;PMS3003;6337;49.556;25.594;2023-11-19T12:44:21;14.10;9.70;
12542;PMS3003;6337;49.556;25.594;2023-11-19T12:47:01;10.17;7.37;
12542;PMS3003;6337;49.556;25.594;2023-11-19T12:49:29;11.73;8.27;
12542;PMS3003;6337;49.556;25.594;2023-11-19T12:51:56;13.40;7.60;
12542;PMS3003;6337;49.556;25.594;2023-11-19T12:54:34;11.40;8.70;
12542;PMS3003;6337;49.556;25.594;2023-11-19T12:57:02;10.68;7.90;
12542;PMS3003;6337;49.556;25.594;2023-11-19T12:59:34;10.00;8.20;
12542;PMS3003;6337;49.556;25.594;2023-11-19T13:02:01;11.17;8.93;
12542;PMS3003;6337;49.556;25.594;2023-11-19T13:04:31;13.73;9.63;
12542;PMS3003;6337;49.556;25.594;2023-11-19T13:06:59;15.10;8.00;
12542;PMS3003;6337;49.556;25.594;2023-11-19T13:09:29;12.97;9.57;
12542;PMS3003;6337;49.556;25.594;2023-11-19T13:11:56;13.73;6.87;
12542;PMS3003;6337;49.556;25.594;2023-11-19T13:14:35;17.00;8.73;
12542;PMS3003;6337;49.556;25.594;2023-11-19T13:17:05;9.88;8.15;
12542;PMS3003;6337;49.556;25.594;2023-11-19T13:19:32;15.70;9.52;
12542;PMS3003;6337;49.556;25.594;2023-11-19T13:22:00;13.18;9.15;
12542;PMS3003;6337;49.556;25.594;2023-11-19T13:24:27;11.50;9.55;
12542;PMS3003;6337;49.556;25.594;2023-11-19T13:26:54;10.57;8.38;
12542;PMS3003;6337;49.556;25.594;2023-11-19T13:29:24;13.80;9.90;
12542;PMS3003;6337;49.556;25.594;2023-11-19T13:31:53;11.20;8.03;
12542;PMS3003;6337;49.556;25.594;2023-11-19T13:34:20;29.48;16.25;
12542;PMS3003;6337;49.556;25.594;2023-11-19T13:36:47;20.83;12.30;
12542;PMS3003;6337;49.556;25.594;2023-11-19T13:39:15;26.83;14.52;
12542;PMS3003;6337;49.556;25.594;2023-11-19T13:41:47;18.37;11.23;
12542;PMS3003;6337;49.556;25.594;2023-11-19T13:44:16;17.13;9.30;
12542;PMS3003;6337;49.556;25.594;2023-11-19T13:46:44;12.00;9.47;
12542;PMS3003;6337;49.556;25.594;2023-11-19T13:49:16;13.40;8.77;
12542;PMS3003;6337;49.556;25.594;2023-11-19T13:51:45;21.07;10.90;
12542;PMS3003;6337;49.556;25.594;2023-11-19T13:54:12;19.05;11.95;
12542;PMS3003;6337;49.556;25.594;2023-11-19T13:56:42;16.65;10.20;
12542;PMS3003;6337;49.556;25.594;2023-11-19T13:59:11;28.63;13.63;
12542;PMS3003;6337;49.556;25.594;2023-11-19T14:01:44;16.13;11.77;
12542;PMS3003;6337;49.556;25.594;2023-11-19T14:04:12;12.75;9.98;
12542;PMS3003;6337;49.556;25.594;2023-11-19T14:06:43;18.47;10.10;
12542;PMS3003;6337;49.556;25.594;2023-11-19T14:09:11;14.65;9.40;
12542;PMS3003;6337;49.556;25.594;2023-11-19T14:11:39;13.57;9.43;
12542;PMS3003;6337;49.556;25.594;2023-11-19T14:14:07;14.80;9.45;
12542;PMS3003;6337;49.556;25.594;2023-11-19T14:16:35;11.80;7.88;
12542;PMS3003;6337;49.556;25.594;2023-11-19T14:19:04;17.00;9.55;
12542;PMS3003;6337;49.556;25.594;2023-11-19T14:21:33;13.35;9.70;
12542;PMS3003;6337;49.556;25.594;2023-11-19T14:24:01;12.50;8.30;
12542;PMS3003;6337;49.556;25.594;2023-11-19T14:26:29;23.45;10.18;
12542;PMS3003;6337;49.556;25.594;2023-11-19T14:28:56;12.60;8.80;
12542;PMS3003;6337;49.556;25.594;2023-11-19T14:31:27;19.43;8.60;
12542;PMS3003;6337;49.556;25.594;2023-11-19T14:33:55;9.43;7.35;
12542;PMS3003;6337;49.556;25.594;2023-11-19T14:36:23;12.57;8.48;
12542;PMS3003;6337;49.556;25.594;2023-11-19T14:38:50;13.77;9.88;
12542;PMS3003;6337;49.556;25.594;2023-11-19T14:41:20;13.27;9.93;
12542;PMS3003;6337;49.556;25.594;2023-11-19T14:43:47;15.38;8.68;
12542;PMS3003;6337;49.556;25.594;2023-11-19T14:46:14;13.20;8.50;
12542;PMS3003;6337;49.556;25.594;2023-11-19T14:48:41;15.52;9.68;
12542;PMS3003;6337;49.556;25.594;2023-11-19T14:51:09;18.17;9.57;
12542;PMS3003;6337;49.556;25.594;2023-11-19T14:53:38;12.48;9.52;
12542;PMS3003;6337;49.556;25.594;2023-11-19T14:56:05;18.33;10.45;
12542;PMS3003;6337;49.556;25.594;2023-11-19T14:58:40;14.03;9.30;
12542;PMS3003;6337;49.556;25.594;2023-11-19T15:01:11;12.02;8.07;
12542;PMS3003;6337;49.556;25.594;2023-11-19T15:03:39;10.45;6.78;
12542;PMS3003;6337;49.556;25.594;2023-11-19T15:06:06;12.18;7.95;
12542;PMS3003;6337;49.556;25.594;2023-11-19T15:08:36;11.13;8.20;
12542;PMS3003;6337;49.556;25.594;2023-11-19T15:11:14;14.20;10.07;
12542;PMS3003;6337;49.556;25.594;2023-11-19T15:13:44;10.38;6.18;
12542;PMS3003;6337;49.556;25.594;2023-11-19T15:16:12;13.23;7.68;